Map

Track Data

SID SEASON NUMBER BASIN SUBBASIN NAME ISO_TIME NATURE LAT LON WMO_WIND WMO_PRES WMO_AGENCY TRACK_TYPE DIST2LAND LANDFALL IFLAG USA_AGENCY USA_ATCF_ID USA_LAT USA_LON USA_RECORD USA_STATUS USA_WIND USA_PRES USA_SSHS USA_R34_NE USA_R34_SE USA_R34_SW USA_R34_NW USA_R50_NE USA_R50_SE USA_R50_SW USA_R50_NW USA_R64_NE USA_R64_SE USA_R64_SW USA_R64_NW USA_POCI USA_ROCI USA_RMW USA_EYE TOKYO_LAT TOKYO_LON TOKYO_GRADE TOKYO_WIND TOKYO_PRES TOKYO_R50_DIR TOKYO_R50_LONG TOKYO_R50_SHORT TOKYO_R30_DIR TOKYO_R30_LONG TOKYO_R30_SHORT TOKYO_LAND CMA_LAT CMA_LON CMA_CAT CMA_WIND CMA_PRES HKO_LAT HKO_LON HKO_CAT HKO_WIND HKO_PRES NEWDELHI_LAT NEWDELHI_LON NEWDELHI_GRADE NEWDELHI_WIND NEWDELHI_PRES NEWDELHI_CI NEWDELHI_DP NEWDELHI_POCI REUNION_LAT REUNION_LON REUNION_TYPE REUNION_WIND REUNION_PRES REUNION_TNUM REUNION_CI REUNION_RMW REUNION_R34_NE REUNION_R34_SE REUNION_R34_SW REUNION_R34_NW REUNION_R50_NE REUNION_R50_SE REUNION_R50_SW REUNION_R50_NW REUNION_R64_NE REUNION_R64_SE REUNION_R64_SW REUNION_R64_NW BOM_LAT BOM_LON BOM_TYPE BOM_WIND BOM_PRES BOM_TNUM BOM_CI BOM_RMW BOM_R34_NE BOM_R34_SE BOM_R34_SW BOM_R34_NW BOM_R50_NE BOM_R50_SE BOM_R50_SW BOM_R50_NW BOM_R64_NE BOM_R64_SE BOM_R64_SW BOM_R64_NW BOM_ROCI BOM_POCI BOM_EYE BOM_POS_METHOD BOM_PRES_METHOD NADI_LAT NADI_LON NADI_CAT NADI_WIND NADI_PRES WELLINGTON_LAT WELLINGTON_LON WELLINGTON_WIND WELLINGTON_PRES DS824_LAT DS824_LON DS824_STAGE DS824_WIND DS824_PRES TD9636_LAT TD9636_LON TD9636_STAGE TD9636_WIND TD9636_PRES TD9635_LAT TD9635_LON TD9635_WIND TD9635_PRES TD9635_ROCI NEUMANN_LAT NEUMANN_LON NEUMANN_CLASS NEUMANN_WIND NEUMANN_PRES MLC_LAT MLC_LON MLC_CLASS MLC_WIND MLC_PRES USA_GUST BOM_GUST BOM_GUST_PER REUNION_GUST REUNION_GUST_PER USA_SEAHGT USA_SEARAD_NE USA_SEARAD_SE USA_SEARAD_SW USA_SEARAD_NW STORM_SPEED STORM_DIR
1976087S13057 1976 34 SI MM GLADYS 1976-03-27 06:00:00 TS -12.9400 57.2800 reunion main 777 767 O____O___OO_O_ jtwc_sh SH231976 -12.9000 56.8000 -1 -13.0000 58.0000 2 9.90000 -12.9000 56.8000 TC 25 -12.9000 56.8000 7 -13.0000 58.0000 TC 25 3 294
1976087S13057 1976 34 SI MM GLADYS 1976-03-27 09:00:00 TS -12.8836 57.1526 main 767 737 P____P___PP_P_ SH231976 -12.8401 56.5075 -1 -12.9323 58.1225 2 -12.8401 56.5075 TC 25 -12.8735 56.5031 7 -12.9323 58.1225 TC 25 4 284
1976087S13057 1976 34 SI MM GLADYS 1976-03-27 12:00:00 TS -12.8495 56.9190 reunion main 741 696 O____O___OP_O_ jtwc_sh SH231976 -12.8000 56.2000 -1 -12.9000 58.0000 99 9.90000 -12.8000 56.2000 TC 25 -12.8475 56.1950 7 -12.9000 58.0000 TC 25 6 273
1976087S13057 1976 34 SI MM GLADYS 1976-03-27 15:00:00 TS -12.8526 56.5119 main 696 646 P____P___PP_P_ SH231976 -12.7924 55.8650 -1 -12.9278 57.4825 99 -12.7924 55.8650 TC 25 -12.8227 55.8644 7 -12.9278 57.4825 TC 25 9 268
1976087S13057 1976 34 SI MM GLADYS 1976-03-27 18:00:00 TS -12.8800 56.0200 reunion main 646 603 O____O___OO_O_ jtwc_sh SH231976 -12.8000 55.5000 -1 -13.0000 56.8000 99 9.90000 -12.8000 55.5000 TC 25 -12.8000 55.5000 7 -13.0000 56.8000 TC 25 9 267
1976087S13057 1976 34 SI MM GLADYS 1976-03-27 21:00:00 TS -12.8984 55.5623 main 603 548 P____P___PP_P_ SH231976 -12.7925 55.1075 -1 -13.0623 56.2498 99 -12.7925 55.1075 TC 25 -12.7824 55.0970 7 -13.0623 56.2498 TC 25 9 265
1976087S13057 1976 34 SI MM GLADYS 1976-03-28 00:00:00 TS -12.9566 55.0955 reunion main 548 493 O____O___OP_O_ jtwc_sh SH231976 -12.8000 54.7000 -1 -13.2000 55.7000 99 9.90000 -12.8000 54.7000 TC 25 -12.7828 54.6773 7 -13.2000 55.7000 TC 25 10 258
1976087S13057 1976 34 SI MM GLADYS 1976-03-28 03:00:00 TS -13.0914 54.5899 main 493 446 P____P___PP_P_ SH231976 -12.8200 54.2775 -1 -13.5002 55.0629 99 -12.8200 54.2775 TC 25 -12.8168 54.2689 7 -13.5002 55.0629 TC 27 10 252
1976087S13057 1976 34 SI MM GLADYS 1976-03-28 06:00:00 TS -13.2600 54.1400 reunion main 436 413 O____O___OO_O_ jtwc_sh SH231976 -12.9000 53.9000 -1 -13.8000 54.5000 2 9.90000 -12.9000 53.9000 TC 25 -12.9000 53.9000 1 -13.8000 54.5000 TC 30 8 246
1976087S13057 1976 34 SI MM GLADYS 1976-03-28 09:00:00 TS -13.4119 53.8433 main 402 378 P____P___PP_P_ SH231976 -13.0774 53.6275 -1 -13.9296 54.1772 2 -13.0774 53.6275 TC 25 -13.0453 53.6069 1 -13.9296 54.1772 TC 30 6 240
1976087S13057 1976 34 SI MM GLADYS 1976-03-28 12:00:00 TS -13.5679 53.5910 reunion main 378 345 O____O___OP_O_ jtwc_sh SH231976 -13.3000 53.4000 -1 -14.0000 53.9000 99 9.90000 -13.3000 53.4000 TC 25 -13.2396 53.3550 1 -14.0000 53.9000 TC 30 6 241
1976087S13057 1976 34 SI MM GLADYS 1976-03-28 15:00:00 TS -13.7178 53.2710 main 345 306 P____P___PP_P_ SH231976 -13.4925 53.1499 -1 -14.0701 53.4648 99 -13.4925 53.1499 TC 25 -13.4641 53.1256 1 -14.0701 53.4648 TC 30 7 242
1976087S13057 1976 34 SI MM GLADYS 1976-03-28 18:00:00 TS -13.9000 52.9400 reunion main 296 261 O____O___OO_O_ jtwc_sh SH231976 -13.7000 52.9000 -1 -14.2000 53.0000 99 9.90000 -13.7000 52.9000 TC 25 -13.7000 52.9000 1 -14.2000 53.0000 TC 30 8 233
1976087S13057 1976 34 SI MM GLADYS 1976-03-28 21:00:00 TS -14.1775 52.6423 main 252 223 P____P___PP_P_ SH231976 -13.9500 52.6500 -1 -14.5149 52.6003 99 -13.9500 52.6500 TC 25 -13.9577 52.7110 1 -14.5149 52.6003 TC 30 8 227
1976087S13057 1976 34 SI MM GLADYS 1976-03-29 00:00:00 TS -14.4433 52.3425 reunion main 213 174 O____O___OP_O_ jtwc_sh SH231976 -14.2000 52.4000 -1 -14.8000 52.2000 99 9.90000 -14.2000 52.4000 TC 25 -14.2163 52.5126 1 -14.8000 52.2000 TC 30 7 235
1976087S13057 1976 34 SI MM GLADYS 1976-03-29 03:00:00 TS -14.6013 52.0265 main 174 140 P____P___PP_P_ SH231976 -14.4373 52.1875 -1 -14.8450 51.7497 99 -14.4373 52.1875 TC 25 -14.4418 52.2580 1 -14.8450 51.7497 TC 32 7 250
1976087S13057 1976 34 SI MM GLADYS 1976-03-29 06:00:00 TS -14.6800 51.6600 reunion main 140 102 O____O___OO_O_ jtwc_sh SH231976 -14.6000 51.9000 -1 -14.8000 51.3000 3 9.90000 -14.6000 51.9000 TC 25 -14.6000 51.9000 1 -14.8000 51.3000 TC 35 8 262
1976087S13057 1976 34 SI MM GLADYS 1976-03-29 09:00:00 TS -14.7065 51.2305 main 93 58 P____P___PP_P_ SH231976 -14.6373 51.4749 -1 -14.8074 50.9000 3 -14.6373 51.4749 TC 25 -14.6430 51.4024 1 -14.8074 50.9000 TC 35 9 270
1976087S13057 1976 34 SI MM GLADYS 1976-03-29 12:00:00 TS -14.6835 50.7198 reunion main 48 0 O____O___OP_O_ jtwc_sh SH231976 -14.6000 50.9000 -1 -14.8000 50.5000 99 9.90000 -14.6000 50.9000 TC 25 -14.6176 50.7989 1 -14.8000 50.5000 TC 35 11 273
1976087S13057 1976 34 SI MM GLADYS 1976-03-29 15:00:00 TS -14.6436 50.1372 main 0 0 P____P___PP_P_ SH231976 -14.5500 50.1948 -1 -14.7797 50.0877 99 -14.5500 50.1948 TC 25 -14.5583 50.1211 1 -14.7797 50.0877 TC 35 12 275
1976087S13057 1976 34 SI MM GLADYS 1976-03-29 18:00:00 TS -14.5800 49.4800 reunion main 0 0 O____O___OO_O_ jtwc_sh SH231976 -14.5000 49.4000 -1 -14.7000 49.6000 99 9.90000 -14.5000 49.4000 TC 25 -14.5000 49.4000 1 -14.7000 49.6000 TC 35 14 276
1976087S13057 1976 34 SI MM GLADYS 1976-03-29 21:00:00 TS -14.4904 48.7435 main 0 0 P____P___PP_P_ SH231976 -14.4925 48.5926 -1 -14.4928 48.9496 99 -14.4925 48.5926 TC 25 -14.4815 48.6331 1 -14.4928 48.9496 TC 35 14 277
1976087S13057 1976 34 SI MM GLADYS 1976-03-30 00:00:00 TS -14.4143 48.0080 reunion main 0 0 O____O___OP_O_ jtwc_sh SH231976 -14.5000 47.8000 -1 -14.3000 48.3000 99 9.90000 -14.5000 47.8000 TC 25 -14.4713 47.8399 1 -14.3000 48.3000 TC 35 13 274
1976087S13057 1976 34 SI MM GLADYS 1976-03-30 03:00:00 TS -14.4059 47.3595 main 32 32 P____P___PP_P_ SH231976 -14.4924 47.0475 -1 -14.2848 47.8128 99 -14.4924 47.0475 TC 25 -14.4753 47.0768 1 -14.2848 47.8128 TC 32 12 270
1976087S13057 1976 34 SI MM GLADYS 1976-03-30 06:00:00 TS -14.4200 46.8000 reunion main 77 77 O____O___OO_O_ jtwc_sh SH231976 -14.5000 46.4000 -1 -14.3000 47.4000 2 9.90000 -14.5000 46.4000 TC 25 -14.5000 46.4000 1 -14.3000 47.4000 TC 30 10 270
1976087S13057 1976 34 SI MM GLADYS 1976-03-30 09:00:00 TS -14.4088 46.3452 main 114 114 P____P___PP_P_ SH231976 -14.5347 45.9050 -1 -14.2073 47.0149 2 -14.5347 45.9050 TC 25 -14.5602 45.8859 1 -14.2073 47.0149 TC 30 8 271
1976087S13057 1976 34 SI MM GLADYS 1976-03-30 12:00:00 TS -14.4082 45.9321 reunion main 134 134 O____O___OP_O_ jtwc_sh SH231976 -14.6000 45.5000 -1 -14.1000 46.6000 99 9.90000 -14.6000 45.5000 TC 25 -14.6408 45.4604 1 -14.1000 46.6000 TC 30 8 268
1976087S13057 1976 34 SI MM GLADYS 1976-03-30 15:00:00 TS -14.4392 45.4849 main 162 158 P____P___PP_P_ SH231976 -14.6999 45.1000 -1 -14.0350 46.0725 99 -14.6999 45.1000 TC 25 -14.7261 45.0796 1 -14.0350 46.0725 TC 30 9 265
1976087S13057 1976 34 SI MM GLADYS 1976-03-30 18:00:00 TS -14.4800 45.0200 reunion main 168 168 O____O___OO_O_ jtwc_sh SH231976 -14.8000 44.7000 -1 -14.0000 45.5000 99 9.90000 -14.8000 44.7000 TC 25 -14.8000 44.7000 1 -14.0000 45.5000 TC 30 9 266
1976087S13057 1976 34 SI MM GLADYS 1976-03-30 21:00:00 TS -14.5056 44.5282 main 179 179 P____P___PP_P_ SH231976 -14.8650 44.2575 -1 -13.9774 44.9425 99 -14.8650 44.2575 TC 25 -14.8434 44.2409 1 -13.9774 44.9425 TC 30 10 267
1976087S13057 1976 34 SI MM GLADYS 1976-03-31 00:00:00 TS -14.5345 44.0355 reunion main 205 197 O____O___OP_O_ jtwc_sh SH231976 -14.9000 43.8000 -1 -14.0000 44.4000 99 9.90000 -14.9000 43.8000 TC 25 -14.8726 43.7774 1 -14.0000 44.4000 TC 30 10 265
1976087S13057 1976 34 SI MM GLADYS 1976-03-31 03:00:00 TS -14.5871 43.5471 main 213 213 P____P___PP_P_ SH231976 -14.9075 43.3350 -1 -14.1150 43.8702 99 -14.9075 43.3350 TC 25 -14.8904 43.3253 1 -14.1150 43.8702 TC 27 9 265
1976087S13057 1976 34 SI MM GLADYS 1976-03-31 06:00:00 TS -14.6200 43.1000 reunion main 235 204 O____O___OO_O_ jtwc_sh SH231976 -14.9000 42.9000 -1 -14.2000 43.4000 2 9.90000 -14.9000 42.9000 TC 25 -14.9000 42.9000 1 -14.2000 43.4000 TC 25 8 270
1976087S13057 1976 34 SI MM GLADYS 1976-03-31 09:00:00 TS -14.5856 42.7305 main 204 172 P____P___PP_P_ SH231976 -14.8999 42.5350 -1 -14.1148 43.0348 2 -14.8999 42.5350 TC 25 -14.8987 42.5130 1 -14.1148 43.0348 TC 25 7 277
1976087S13057 1976 34 SI MM GLADYS 1976-03-31 12:00:00 TS -14.5384 42.3910 reunion main 172 129 O____O___OP_O_ jtwc_sh SH231976 -14.9000 42.2000 -1 -14.0000 42.7000 99 9.90000 -14.9000 42.2000 TC 25 -14.8921 42.1548 1 -14.0000 42.7000 TC 25 7 275
1976087S13057 1976 34 SI MM GLADYS 1976-03-31 15:00:00 TS -14.5289 42.0269 main 129 96 P____P___PP_P_ SH231976 -14.8924 41.8500 -1 -13.9850 42.3076 99 -14.8924 41.8500 TC 25 -14.8894 41.8192 1 -13.9850 42.3076 TC 25 7 270
1976087S13057 1976 34 SI MM GLADYS 1976-03-31 18:00:00 TS -14.5400 41.6600 reunion main 96 53 O____O___OO_O_ jtwc_sh SH231976 -14.9000 41.5000 -1 -14.0000 41.9000 99 9.90000 -14.9000 41.5000 TC 25 -14.9000 41.5000 1 -14.0000 41.9000 TC 25 7 269
1976087S13057 1976 34 SI MM GLADYS 1976-03-31 21:00:00 TS -14.5475 41.2810 main 53 10 P____P___PP_P_ SH231976 -14.9425 41.1350 -1 -13.9625 41.4848 99 -14.9425 41.1350 TC 25 -14.9274 41.1654 1 -13.9625 41.4848 TC 25 7 266
1976087S13057 1976 34 SI MM GLADYS 1976-04-01 00:00:00 TS -14.5940 40.9295 reunion main 10 0 O____O___OP_O_ jtwc_sh SH231976 -15.0000 40.8000 -1 -14.0000 41.1000 99 9.90000 -15.0000 40.8000 TC 25 -14.9700 40.8476 1 -14.0000 41.1000 TC 25 6 255
1976087S13057 1976 34 SI MM GLADYS 1976-04-01 03:00:00 TS -14.7104 40.6332 main 0 0 P____P___PP_P_ SH231976 -15.0424 40.5275 -1 -14.2199 40.7776 99 -15.0424 40.5275 TC 25 -15.0275 40.5560 1 -14.2199 40.7776 TC 25 6 243
1976087S13057 1976 34 SI MM GLADYS 1976-04-01 06:00:00 TS -14.8600 40.3800 reunion main 0 0 O____O___OO_O_ jtwc_sh SH231976 -15.1000 40.3000 -1 -14.5000 40.5000 2 9.90000 -15.1000 40.3000 TC 25 -15.1000 40.3000 1 -14.5000 40.5000 TC 25 6 238
1976087S13057 1976 34 SI MM GLADYS 1976-04-01 09:00:00 TS -15.0022 40.1480 main 0 0 P____P___PP_P_ SH231976 -15.1925 40.0850 -1 -14.7224 40.2425 2 -15.1925 40.0850 TC 25 -15.1814 40.0850 1 -14.7224 40.2425 TC 25 5 237
1976087S13057 1976 34 SI MM GLADYS 1976-04-01 12:00:00 TS -15.1355 39.9410 reunion main 0 0 O____O___OP_O_ jtwc_sh SH231976 -15.3000 39.9000 -1 -14.9000 40.0000 99 9.90000 -15.3000 39.9000 TC 25 -15.2773 39.9049 1 -14.9000 40.0000 TC 25 5 240
1976087S13057 1976 34 SI MM GLADYS 1976-04-01 15:00:00 TS -15.2309 39.7404 main 0 0 P____P___PP_P_ SH231976 -15.4000 39.7425 -1 -14.9850 39.7349 99 -15.4000 39.7425 TC 25 -15.3845 39.7474 1 -14.9850 39.7349 TC 25 4 241
1976087S13057 1976 34 SI MM GLADYS 1976-04-01 18:00:00 TS -15.3400 39.5600 reunion main 0 0 O____O___OO_O_ jtwc_sh SH231976 -15.5000 39.6000 -1 -15.1000 39.5000 99 9.90000 -15.5000 39.6000 TC 25 -15.5000 39.6000 1 -15.1000 39.5000 TC 25 4 230
1976087S13057 1976 34 SI MM GLADYS 1976-04-01 21:00:00 TS -15.5110 39.3955 main 0 0 P____P___PP_P_ SH231976 -15.5925 39.4500 -1 -15.3925 39.3276 99 -15.5925 39.4500 TC 25 -15.5853 39.4225 1 -15.3925 39.3276 TC 25 5 220
1976087S13057 1976 34 SI MM GLADYS 1976-04-02 00:00:00 TS -15.6965 39.2510 reunion main 0 0 O____O___OP_O_ jtwc_sh SH231976 -15.7000 39.3000 -1 -15.7000 39.2000 99 9.90000 -15.7000 39.3000 TC 25 -15.6825 39.2550 1 -15.7000 39.2000 TC 25 4 220
1976087S13057 1976 34 SI MM GLADYS 1976-04-02 03:00:00 TS -15.8397 39.1070 main 0 0 P____P___PP_P_ SH231976 -15.8200 39.1350 -1 -15.8725 39.0775 99 -15.8200 39.1350 TC 25 -15.8135 39.1100 1 -15.8725 39.0775 TC 27 4 218
1976087S13057 1976 34 SI MM GLADYS 1976-04-02 06:00:00 TS -16.0000 39.0000 reunion main 0 0 O____O___OO_O_ jtwc_sh SH231976 -16.0000 39.0000 -1 -16.0000 39.0000 2 9.90000 -16.0000 39.0000 TC 25 -16.0000 39.0000 7 -16.0000 39.0000 TC 30 4 202
1976087S13057 1976 34 SI MM GLADYS 1976-04-02 09:00:00 TS -16.2247 38.9496 main 0 0 P____P___PP_P_ SH231976 -16.2700 38.9275 -1 -16.1500 38.9850 2 -16.2700 38.9275 TC 25 -16.2837 38.9229 7 -16.1500 38.9850 TC 30 5 187
1976087S13057 1976 34 SI MM GLADYS 1976-04-02 12:00:00 TS -16.4840 38.9365 reunion main 0 0 O____O___OP_O_ jtwc_sh SH231976 -16.6000 38.9000 -1 -16.3000 39.0000 99 9.90000 -16.6000 38.9000 TC 25 -16.6199 38.8826 7 -16.3000 39.0000 TC 30 5 0
1976087S13057 1976 34 SI MM GLADYS 1976-04-02 15:00:00 TS -16.7602 38.9292 main 0 0 P____P___PP_P_ SH231976 -16.9575 38.8850 -1 -16.4575 39.0000 99 -16.9575 38.8850 TC 25 -16.9712 38.8760 7 -16.4575 39.0000 TC 30 5 177
1976087S13057 1976 34 SI MM GLADYS 1976-04-02 18:00:00 TS -17.0200 38.9400 reunion main 0 0 O____O___OO_O_ jtwc_sh SH231976 -17.3000 38.9000 -1 -16.6000 39.0000 99 9.90000 -17.3000 38.9000 TC 25 -17.3000 38.9000 7 -16.6000 39.0000 TC 30 5 175
1976087S13057 1976 34 SI MM GLADYS 1976-04-02 21:00:00 TS -17.2268 38.9592 main 22 22 P____P___PP_P_ SH231976 -17.5725 38.9350 -1 -16.7075 39.0000 99 -17.5725 38.9350 TC 25 -17.5740 38.9259 7 -16.7075 39.0000 TC 30 5 172
1976087S13057 1976 34 SI MM GLADYS 1976-04-03 00:00:00 TS -17.4705 38.9961 reunion main 54 54 O____O___OP_O_ jtwc_sh SH231976 -17.8000 39.0000 -1 -16.8000 39.0000 99 9.90000 -17.8000 39.0000 TC 25 -17.8174 38.9824 7 -16.8000 39.0000 TC 30 5 168
1976087S13057 1976 34 SI MM GLADYS 1976-04-03 03:00:00 TS -17.7449 39.0738 main 78 78 P____P___PP_P_ SH231976 -18.0225 39.0850 -1 -16.8997 38.9973 99 -18.0225 39.0850 TC 25 -18.0271 39.0728 7 -16.8997 38.9973 TC 30 6 163
1976087S13057 1976 34 SI MM GLADYS 1976-04-03 06:00:00 TS -18.0286 39.1714 reunion main 112 112 O____O___OO_O_ jtwc_sh SH231976 -18.2000 39.2000 -1 -17.0000 39.0000 2 9.90000 -18.2000 39.2000 TC 25 -18.2000 39.2000 7 -17.0000 39.0000 TC 30 6 157
1976087S13057 1976 34 SI MM GLADYS 1976-04-03 09:00:00 TS -18.3246 39.3343 main 147 147 P________PP___ SH231976 -18.3150 39.3276 -1 2 -18.3150 39.3276 TC 25 -18.3440 39.3479 7 TC 5 140
1976087S13057 1976 34 SI MM GLADYS 1976-04-03 12:00:00 TS -18.4175 39.5109 reunion main 162 162 O________OP___ jtwc_sh SH231976 -18.4000 39.5000 -1 2 -18.4000 39.5000 TC 25 -18.4524 39.5326 7 TC 4 117
1976087S13057 1976 34 SI MM GLADYS 1976-04-03 15:00:00 TS -18.5165 39.7353 main 179 179 P________PP___ SH231976 -18.5075 39.7275 -1 2 -18.5075 39.7275 TC 25 -18.5346 39.7510 7 TC 5 112
1976087S13057 1976 34 SI MM GLADYS 1976-04-03 18:00:00 TS -18.6000 40.0000 reunion main 202 202 O________OO___ jtwc_sh SH231976 -18.6000 40.0000 -1 2 -18.6000 40.0000 TC 25 -18.6000 40.0000 7 TC 5 105
1976087S13057 1976 34 SI MM GLADYS 1976-04-03 21:00:00 TS -18.6599 40.2909 main 228 228 P________PP___ SH231976 -18.6575 40.2925 -1 2 -18.6575 40.2925 TC 25 -18.6646 40.2876 7 TC 6 100
1976087S13057 1976 34 SI MM GLADYS 1976-04-04 00:00:00 TS -18.7051 40.6000 reunion main 247 247 O________OP___ jtwc_sh SH231976 -18.7000 40.6000 -1 2 -18.7000 40.6000 TC 25 -18.7153 40.6001 7 TC 6 99
1976087S13057 1976 34 SI MM GLADYS 1976-04-04 03:00:00 TS -18.7528 40.9092 main 277 277 P________PP___ SH231976 -18.7500 40.9075 -1 2 -18.7500 40.9075 TC 25 -18.7583 40.9126 7 TC 6 99
1976087S13057 1976 34 SI MM GLADYS 1976-04-04 06:00:00 TS -18.8000 41.2000 reunion main 297 267 O________OO___ jtwc_sh SH231976 -18.8000 41.2000 -1 2 -18.8000 41.2000 TC 25 -18.8000 41.2000 7 TC 5 100
1976087S13057 1976 34 SI MM GLADYS 1976-04-04 09:00:00 TS -18.8432 41.4661 main 267 248 P________PP___ SH231976 -18.8500 41.4725 -1 2 -18.8500 41.4725 TC 25 -18.8296 41.4532 7 TC 5 101
1976087S13057 1976 34 SI MM GLADYS 1976-04-04 12:00:00 TS -18.8875 41.6917 reunion main 248 228 O________OP___ jtwc_sh SH231976 -18.9000 41.7000 -1 2 -18.9000 41.7000 TC 25 -18.8624 41.6751 7 TC 4 102
1976087S13057 1976 34 SI MM GLADYS 1976-04-04 15:00:00 TS -18.9280 41.8732 main 228 221 P________PP___ SH231976 -18.9350 41.8800 -1 2 -18.9350 41.8800 TC 25 -18.9140 41.8594 7 TC 3 111
1976087S13057 1976 34 SI MM GLADYS 1976-04-04 18:00:00 TS -19.0000 42.0000 reunion main 221 214 O________OO___ jtwc_sh SH231976 -19.0000 42.0000 -1 2 -19.0000 42.0000 TC 25 -19.0000 42.0000 7 TC 3 138
1976087S13057 1976 34 SI MM GLADYS 1976-04-04 21:00:00 TS -19.1367 42.0757 main 214 214 P________PP___ SH231976 -19.1275 42.0650 -1 2 -19.1275 42.0650 TC 25 -19.1552 42.0972 7 TC 3 160
1976087S13057 1976 34 SI MM GLADYS 1976-04-05 00:00:00 TS -19.3141 42.1175 reunion main 221 214 O________OP___ jtwc_sh SH231976 -19.3000 42.1000 -1 2 -19.3000 42.1000 TC 25 -19.3424 42.1525 7 TC 4 168
1976087S13057 1976 34 SI MM GLADYS 1976-04-05 03:00:00 TS -19.5161 42.1605 main 214 214 P________PP___ SH231976 -19.5075 42.1500 -1 2 -19.5075 42.1500 TC 25 -19.5334 42.1816 7 TC 4 169
1976087S13057 1976 34 SI MM GLADYS 1976-04-05 06:00:00 TS -19.7000 42.2000 reunion main 215 209 O________OO___ jtwc_sh SH231976 -19.7000 42.2000 -1 2 -19.7000 42.2000 TC 25 -19.7000 42.2000 7 TC 3 164
1976087S13057 1976 34 SI MM GLADYS 1976-04-05 09:00:00 TS -19.8176 42.2518 main 200 194 P________PP___ SH231976 -19.8225 42.2575 -1 2 -19.8225 42.2575 TC 25 -19.8078 42.2404 7 TC 2 157
1976087S13057 1976 34 SI MM GLADYS 1976-04-05 12:00:00 TS -19.8958 42.2908 reunion main 194 189 O________OP___ jtwc_sh SH231976 -19.9000 42.3000 -1 2 -19.9000 42.3000 TC 25 -19.8875 42.2725 7 TC 1 164
1976087S13057 1976 34 SI MM GLADYS 1976-04-05 15:00:00 TS -19.9545 42.3028 main 189 189 P________PP___ SH231976 -19.9575 42.3075 -1 2 -19.9575 42.3075 TC 25 -19.9484 42.2935 7 TC 1 174
1976087S13057 1976 34 SI MM GLADYS 1976-04-05 18:00:00 TS -20.0000 42.3000 reunion main 189 184 O________OO___ jtwc_sh SH231976 -20.0000 42.3000 -1 2 -20.0000 42.3000 TC 25 -20.0000 42.3000 7 TC 1 167
1976087S13057 1976 34 SI MM GLADYS 1976-04-05 21:00:00 TS -20.0564 42.3082 main 184 184 P________PP___ SH231976 -20.0500 42.3075 -1 2 -20.0500 42.3075 TC 25 -20.0693 42.3097 7 TC 1 169
1976087S13057 1976 34 SI MM GLADYS 1976-04-06 00:00:00 TS -20.1100 42.3009 reunion main 184 184 O________OP___ jtwc_sh SH231976 -20.1000 42.3000 -1 2 -20.1000 42.3000 TC 25 -20.1299 42.3026 7 TC 1 235
1976087S13057 1976 34 SI MM GLADYS 1976-04-06 03:00:00 TS -20.1287 42.1995 main 193 193 P________PP___ SH231976 -20.1575 42.2725 -1 2 -20.1575 42.2725 TC 25 -20.1755 42.2691 7 TC 1 284
1976087S13057 1976 34 SI MM GLADYS 1976-04-06 06:00:00 TS -20.0750 42.1500 reunion main 193 193 O____O___OO_O_ jtwc_sh SH231976 -20.2000 42.2000 -1 -19.7000 42.0000 3 9.90000 -20.2000 42.2000 TC 25 -20.2000 42.2000 7 -19.7000 42.0000 TC 35 2 337
1976087S13057 1976 34 SI MM GLADYS 1976-04-06 09:00:00 TS -19.9326 42.1188 main 212 212 P____P___PP_P_ SH231976 -20.2150 42.0650 -1 -19.3495 42.1666 3 -20.2150 42.0650 TC 25 -20.1967 42.0778 7 -19.3495 42.1666 TC 35 2 323
1976087S13057 1976 34 SI MM GLADYS 1976-04-06 12:00:00 TS -19.8932 42.0056 reunion main 222 222 O____O___OP_O_ jtwc_sh SH231976 -20.2000 41.9000 -1 -19.0000 42.3000 99 9.90000 -20.2000 41.9000 TC 25 -20.1727 41.9224 7 -19.0000 42.3000 TC 35 3 269
1976087S13057 1976 34 SI MM GLADYS 1976-04-06 15:00:00 TS -19.9360 41.8131 main 240 236 P____P___PP_P_ SH231976 -20.1500 41.7425 -1 -18.7128 42.3418 99 -20.1500 41.7425 TC 25 -20.1373 41.7559 7 -18.7128 42.3418 TC 4 241
1976087S13057 1976 34 SI MM GLADYS 1976-04-06 18:00:00 TS -20.1000 41.6000 reunion main 245 245 O____P___OO_P_ jtwc_sh SH231976 -20.1000 41.6000 -1 -18.4756 42.3022 99 -20.1000 41.6000 TC 25 -20.1000 41.6000 7 -18.4756 42.3022 TC 3 242
1976087S13057 1976 34 SI MM GLADYS 1976-04-06 21:00:00 TS -20.0943 41.4930 main 253 253 P____P___PP_P_ SH231976 -20.1000 41.4925 -1 -18.2836 42.1942 99 -20.1000 41.4925 TC 25 -20.0830 41.4938 7 -18.2836 42.1942 TC 2 274
1976087S13057 1976 34 SI MM GLADYS 1976-04-07 00:00:00 TS -20.0883 41.4000 reunion main 262 262 O____P___OP_P_ jtwc_sh SH231976 -20.1000 41.4000 -1 -18.1319 42.0303 99 -20.1000 41.4000 TC 25 -20.0649 41.4001 7 -18.1319 42.0303 TC 2 284
1976087S13057 1976 34 SI MM GLADYS 1976-04-07 03:00:00 TS -20.0514 41.3071 main 271 271 P____P___PP_P_ SH231976 -20.0575 41.3075 -1 -18.0157 41.8231 99 -20.0575 41.3075 TC 25 -20.0393 41.3063 7 -18.0157 41.8231 TC 2 295
1976087S13057 1976 34 SI MM GLADYS 1976-04-07 06:00:00 TS -20.0000 41.2000 reunion main 285 285 O____P___OO_P_ jtwc_sh SH231976 -20.0000 41.2000 -1 -17.9302 41.5848 99 -20.0000 41.2000 TC 25 -20.0000 41.2000 1 -17.9302 41.5848 TC 3 293
1976087S13057 1976 34 SI MM GLADYS 1976-04-07 09:00:00 TS -19.9501 41.0557 main 294 294 P____P___PP_P_ SH231976 -19.9575 41.0575 -1 -17.8707 41.3280 99 -19.9575 41.0575 TC 25 -19.9354 41.0521 1 -17.8707 41.3280 TC 3 292
1976087S13057 1976 34 SI MM GLADYS 1976-04-07 12:00:00 TS -19.8859 40.8975 reunion main 318 318 O____P___OP_P_ jtwc_sh SH231976 -19.9000 40.9000 -1 -17.8325 41.0651 99 -19.9000 40.9000 TC 25 -19.8576 40.8924 1 -17.8325 41.0651 TC 3 298
1976087S13057 1976 34 SI MM GLADYS 1976-04-07 15:00:00 TS -19.7920 40.7355 main 341 341 P____P___PP_P_ SH231976 -19.8000 40.7350 -1 -17.8108 40.8083 99 -19.8000 40.7350 TC 25 -19.7760 40.7365 1 -17.8108 40.8083 TC 3 304
1976087S13057 1976 34 SI MM GLADYS 1976-04-07 18:00:00 TS -19.7000 40.6000 reunion main 341 326 O____P___OO_P_ jtwc_sh SH231976 -19.7000 40.6000 -1 -17.8012 40.5703 99 -19.7000 40.6000 TC 25 -19.7000 40.6000 1 -17.8012 40.5703 TC 2 311
1976087S13057 1976 34 SI MM GLADYS 1976-04-07 21:00:00 TS -19.6330 40.5390 main 326 296 P____P___PP_P_ SH231976 -19.6425 40.5425 -1 -17.7991 40.3633 99 -19.6425 40.5425 TC 25 -19.6142 40.5318 1 -17.7991 40.3633 TC 4 339
1976087S13057 1976 34 SI MM GLADYS 1976-04-08 00:00:00 TS -19.3256 40.4514 reunion main 296 272 O____O___OP_O_ jtwc_sh SH231976 -19.6000 40.5000 -1 -17.8000 40.2000 99 9.90000 -19.6000 40.5000 TC 25 -19.5397 40.4798 1 -17.8000 40.2000 TC 30 6 343
1976087S13057 1976 34 SI MM GLADYS 1976-04-08 03:00:00 TS -19.0819 40.3563 main 272 242 P____P___PP_P_ SH231976 -19.5274 40.4299 -1 -17.7690 40.1677 99 -19.5274 40.4299 TC 25 -19.4954 40.4129 1 -17.7690 40.1677 TC 30 5 329
1976087S13057 1976 34 SI MM GLADYS 1976-04-08 06:00:00 TS -18.9333 40.2000 reunion main 242 228 O____O___OO_O_ jtwc_sh SH231976 -19.5000 40.3000 -1 -17.8000 40.0000 2 9.90000 -19.5000 40.3000 TC 25 -19.5000 40.3000 1 -17.8000 40.0000 TC 30 5 291
1976087S13057 1976 34 SI MM GLADYS 1976-04-08 09:00:00 TS -18.8976 39.8549 main 228 221 P____P___PP_P_ SH231976 -19.5700 40.0725 -1 -17.8904 39.5225 2 -19.5700 40.0725 TC 25 -19.5668 40.0843 1 -17.8904 39.5225 TC 30 7 260
1976087S13057 1976 34 SI MM GLADYS 1976-04-08 12:00:00 TS -19.0566 39.4846 reunion main 238 235 O____O___OP_O_ jtwc_sh SH231976 -19.7000 39.8000 -1 -18.1000 39.0000 99 9.90000 -19.7000 39.8000 TC 25 -19.6829 39.8229 1 -18.1000 39.0000 TC 30 7 238
1976087S13057 1976 34 SI MM GLADYS 1976-04-08 15:00:00 TS -19.2824 39.2090 main 251 251 P____P___PP_P_ SH231976 -19.8425 39.5425 -1 -18.4473 38.7049 99 -19.8425 39.5425 TC 25 -19.8325 39.5499 1 -18.4473 38.7049 TC 30 7 223
1976087S13057 1976 34 SI MM GLADYS 1976-04-08 18:00:00 TS -19.5600 38.9800 reunion main 269 260 O____O___OO_O_ jtwc_sh SH231976 -20.0000 39.3000 -1 -18.9000 38.5000 99 9.90000 -20.0000 39.3000 TC 25 -20.0000 39.3000 1 -18.9000 38.5000 TC 30 7 217
1976087S13057 1976 34 SI MM GLADYS 1976-04-08 21:00:00 TS -19.8385 38.7592 main 268 268 P____P___PP_P_ SH231976 -20.1425 39.0775 -1 -19.3775 38.2701 99 -20.1425 39.0775 TC 25 -20.1524 39.1009 1 -19.3775 38.2701 TC 30 7 212
1976087S13057 1976 34 SI MM GLADYS 1976-04-09 00:00:00 TS -20.1440 38.5865 reunion main 275 272 O____O___OP_O_ jtwc_sh SH231976 -20.3000 38.9000 -1 -19.9000 38.1000 99 9.90000 -20.3000 38.9000 TC 25 -20.3199 38.9325 1 -19.9000 38.1000 TC 30 7 202
1976087S13057 1976 34 SI MM GLADYS 1976-04-09 03:00:00 TS -20.4985 38.4725 main 291 290 P____P___PP_P_ SH231976 -20.4925 38.7700 -1 -20.5025 38.0124 99 -20.4925 38.7700 TC 25 -20.5024 38.7979 1 -20.5025 38.0124 TC 30 7 193
1976087S13057 1976 34 SI MM GLADYS 1976-04-09 06:00:00 TS -20.8200 38.4200 reunion main 305 305 O____O___OO_O_ jtwc_sh SH231976 -20.7000 38.7000 -1 -21.0000 38.0000 2 9.90000 -20.7000 38.7000 TC 25 -20.7000 38.7000 1 -21.0000 38.0000 TC 30 5 186
1976087S13057 1976 34 SI MM GLADYS 1976-04-09 09:00:00 TS -21.0119 38.4187 main 321 319 P____P___PP_P_ SH231976 -20.8925 38.6924 -1 -21.1800 38.0350 2 -20.8925 38.6924 TC 25 -20.9146 38.6388 1 -21.1800 38.0350 TC 30 4 177
1976087S13057 1976 34 SI MM GLADYS 1976-04-09 12:00:00 TS -21.1885 38.4424 reunion main 319 309 O____O___OP_O_ jtwc_sh SH231976 -21.1000 38.7000 -1 -21.3000 38.1000 99 9.90000 -21.1000 38.7000 TC 25 -21.1424 38.6122 1 -21.3000 38.1000 TC 30 5 0
1976087S13057 1976 34 SI MM GLADYS 1976-04-09 15:00:00 TS -21.4688 38.4350 main 309 304 P____P___PP_P_ SH231976 -21.3500 38.6501 -1 -21.6350 38.1351 99 -21.3500 38.6501 TC 25 -21.3740 38.6045 1 -21.6350 38.1351 TC 30 6 182
1976087S13057 1976 34 SI MM GLADYS 1976-04-09 18:00:00 TS -21.7600 38.4400 reunion main 302 302 O____O___OO_O_ jtwc_sh SH231976 -21.6000 38.6000 -1 -22.0000 38.2000 99 9.90000 -21.6000 38.6000 TC 25 -21.6000 38.6000 1 -22.0000 38.2000 TC 30 5 176
1976087S13057 1976 34 SI MM GLADYS 1976-04-09 21:00:00 TS -21.9831 38.4830 main 309 309 P____P___PP_P_ SH231976 -21.8075 38.5999 -1 -22.2650 38.3201 99 -21.8075 38.5999 TC 25 -21.7706 38.5749 1 -22.2650 38.3201 TC 30 4 165
1976087S13057 1976 34 SI MM GLADYS 1976-04-10 00:00:00 TS -22.1533 38.5555 reunion main 317 315 O____O___OP_O_ jtwc_sh SH231976 -22.0000 38.6000 -1 -22.5000 38.5000 99 9.90000 -22.0000 38.6000 TC 25 -21.9400 38.5499 1 -22.5000 38.5000 TC 30 3 164
1976087S13057 1976 34 SI MM GLADYS 1976-04-10 03:00:00 TS -22.3099 38.5899 main 315 310 P____P___PP_P_ SH231976 -22.1775 38.5500 -1 -22.7451 38.7348 99 -22.1775 38.5500 TC 25 -22.1394 38.5249 1 -22.7451 38.7348 TC 30 3 176
1976087S13057 1976 34 SI MM GLADYS 1976-04-10 06:00:00 TS -22.4857 38.5714 reunion main 310 297 O____O___OO_O_ jtwc_sh SH231976 -22.4000 38.5000 -1 -23.0000 39.0000 2 9.90000 -22.4000 38.5000 TC 25 -22.4000 38.5000 1 -23.0000 39.0000 TC 30 4 192
1976087S13057 1976 34 SI MM GLADYS 1976-04-10 09:00:00 TS -22.7180 38.4916 main 297 296 P________PP___ SH231976 -22.7050 38.4999 -1 2 -22.7050 38.4999 TC 25 -22.7441 38.4751 1 TC 6 187
1976087S13057 1976 34 SI MM GLADYS 1976-04-10 12:00:00 TS -23.1192 38.4834 main 297 297 O________OP___ jtwc_sh SH231976 -23.1000 38.5000 -1 -23.1000 38.5000 TC 25 -23.1575 38.4502 1 9 183
1976087S13057 1976 34 SI MM GLADYS 1976-04-10 15:00:00 TS -23.5907 38.4502 main 306 294 P________PP___ SH231976 -23.5775 38.4627 -1 -23.5775 38.4627 TC 25 -23.6172 38.4252 1 10 185
1976087S13057 1976 34 SI MM GLADYS 1976-04-10 18:00:00 TS -24.1000 38.4000 main 294 O________OO___ jtwc_sh SH231976 -24.1000 38.4000 -1 -24.1000 38.4000 TC 25 -24.1000 38.4000 7 10 185

About IBTrACS Database

This database is a web-friendly format of International Best Track Archive for Climate Stewardship (IBTrACS), a global best track data archive curated by NOAA dating back to 1842.

Updated: 2021-10-08